OAL822 SAZB-SUMU
Flight info
| Callsign | OAL822 |
|---|---|
| Flight time | 1h 15m |
| Altitude | 33000 |
| Route | DOTRI UW32 MDP UM792 DARKA |
| Aircraft | B738/M-SDE2E3FGHIRWXY/LB1 |
Departure
| Time | 2026-05-09 11:51 |
|---|---|
| Airport | Comandante Espora Airport (SAZB) |
Arrival
| Time | 2026-05-09 13:06 |
|---|---|
| Airport | Carrasco General Cesáreo L. Berisso International Airport (SUMU) |
| Time | Latitude | Longitude | Altitude | Speed | Heading |
|---|---|---|---|---|---|
| 2026-05-09 11:47 | -38.72663 | -62.17861 | 251 ft | 0 kts | 60° |
| 2026-05-09 11:50 | -38.72640 | -62.17812 | 251 ft | 36 kts | 59° |
| 2026-05-09 11:50 | -38.72354 | -62.17168 | 255 ft | 128 kts | 61° |
| 2026-05-09 11:50 | -38.71765 | -62.15876 | 326 ft | 200 kts | 59° |
| 2026-05-09 11:51 | -38.71052 | -62.14291 | 1315 ft | 204 kts | 75° |
| 2026-05-09 11:51 | -38.70710 | -62.12613 | 2670 ft | 190 kts | 93° |
| 2026-05-09 11:51 | -38.70480 | -62.10768 | 3213 ft | 226 kts | 91° |
| 2026-05-09 11:51 | -38.70195 | -62.08688 | 3631 ft | 244 kts | 89° |
| 2026-05-09 11:52 | -38.69881 | -62.06528 | 4214 ft | 250 kts | 89° |
| 2026-05-09 11:52 | -38.69556 | -62.04319 | 4771 ft | 260 kts | 88° |
| 2026-05-09 11:52 | -38.69218 | -62.01993 | 5299 ft | 273 kts | 88° |
| 2026-05-09 11:52 | -38.68982 | -62.00388 | 5876 ft | 275 kts | 87° |
| 2026-05-09 11:53 | -38.68625 | -61.97992 | 6878 ft | 274 kts | 87° |
| 2026-05-09 11:53 | -38.68269 | -61.95591 | 7742 ft | 277 kts | 87° |
| 2026-05-09 11:53 | -38.67911 | -61.93165 | 8593 ft | 281 kts | 87° |
| 2026-05-09 11:53 | -38.67546 | -61.90683 | 9460 ft | 283 kts | 86° |
| 2026-05-09 11:54 | -38.67059 | -61.87373 | 10489 ft | 291 kts | 86° |
| 2026-05-09 11:54 | -38.66676 | -61.84726 | 10716 ft | 316 kts | 86° |
| 2026-05-09 11:54 | -38.66399 | -61.82802 | 10857 ft | 332 kts | 86° |
| 2026-05-09 11:54 | -38.65966 | -61.79824 | 11269 ft | 348 kts | 85° |
| 2026-05-09 11:55 | -38.65516 | -61.76790 | 11928 ft | 354 kts | 85° |
| 2026-05-09 11:56 | -38.63120 | -61.60770 | 15316 ft | 378 kts | 85° |
| 2026-05-09 11:56 | -38.62622 | -61.57448 | 15962 ft | 382 kts | 85° |
| 2026-05-09 11:56 | -38.62119 | -61.54090 | 16606 ft | 386 kts | 85° |
| 2026-05-09 11:57 | -38.61610 | -61.50701 | 17242 ft | 391 kts | 85° |
| 2026-05-09 11:57 | -38.61092 | -61.47259 | 17869 ft | 395 kts | 85° |
| 2026-05-09 11:57 | -38.60572 | -61.43807 | 18482 ft | 399 kts | 84° |
| 2026-05-09 11:57 | -38.60045 | -61.40315 | 19035 ft | 402 kts | 84° |
| 2026-05-09 11:58 | -38.59510 | -61.36786 | 19613 ft | 404 kts | 84° |
| 2026-05-09 11:58 | -38.58971 | -61.33233 | 20170 ft | 407 kts | 84° |
| 2026-05-09 11:58 | -38.58436 | -61.29713 | 20697 ft | 411 kts | 84° |
| 2026-05-09 11:58 | -38.57881 | -61.26068 | 21241 ft | 414 kts | 84° |
| 2026-05-09 11:59 | -38.57337 | -61.22510 | 21756 ft | 417 kts | 83° |
| 2026-05-09 11:59 | -38.56777 | -61.18849 | 22268 ft | 420 kts | 83° |
| 2026-05-09 11:59 | -38.56215 | -61.15177 | 22776 ft | 423 kts | 83° |
| 2026-05-09 11:59 | -38.55647 | -61.11477 | 23271 ft | 426 kts | 83° |
| 2026-05-09 12:00 | -38.55073 | -61.07746 | 23731 ft | 430 kts | 83° |
| 2026-05-09 12:00 | -38.54493 | -61.03982 | 24134 ft | 432 kts | 83° |
| 2026-05-09 12:00 | -38.53908 | -61.00205 | 24563 ft | 434 kts | 82° |
| 2026-05-09 12:00 | -38.53305 | -60.96410 | 24987 ft | 436 kts | 82° |
| 2026-05-09 12:01 | -38.52687 | -60.92609 | 25396 ft | 438 kts | 82° |
| 2026-05-09 12:01 | -38.52062 | -60.88791 | 25783 ft | 441 kts | 82° |
| 2026-05-09 12:01 | -38.51432 | -60.84952 | 26169 ft | 443 kts | 81° |
| 2026-05-09 12:01 | -38.50798 | -60.81093 | 26561 ft | 445 kts | 81° |
| 2026-05-09 12:02 | -38.50164 | -60.77230 | 26929 ft | 447 kts | 81° |
| 2026-05-09 12:02 | -38.49532 | -60.73384 | 27335 ft | 448 kts | 81° |
| 2026-05-09 12:02 | -38.48892 | -60.69496 | 27679 ft | 450 kts | 81° |
| 2026-05-09 12:02 | -38.48247 | -60.65577 | 27987 ft | 453 kts | 81° |
| 2026-05-09 12:03 | -38.47596 | -60.61637 | 28324 ft | 455 kts | 81° |
| 2026-05-09 12:03 | -38.46940 | -60.57669 | 28672 ft | 457 kts | 81° |
| 2026-05-09 12:03 | -38.46281 | -60.53695 | 29016 ft | 459 kts | 80° |
| 2026-05-09 12:03 | -38.45616 | -60.49694 | 29337 ft | 461 kts | 80° |
| 2026-05-09 12:04 | -38.44947 | -60.45677 | 29630 ft | 463 kts | 80° |
| 2026-05-09 12:04 | -38.44274 | -60.41643 | 29924 ft | 465 kts | 80° |
| 2026-05-09 12:04 | -38.43606 | -60.37647 | 30192 ft | 467 kts | 80° |
| 2026-05-09 12:04 | -38.42924 | -60.33584 | 30467 ft | 468 kts | 80° |
| 2026-05-09 12:05 | -38.42241 | -60.29521 | 30810 ft | 467 kts | 80° |
| 2026-05-09 12:05 | -38.41560 | -60.25483 | 31231 ft | 464 kts | 80° |
| 2026-05-09 12:05 | -38.40883 | -60.21479 | 31632 ft | 461 kts | 80° |
| 2026-05-09 12:05 | -38.40216 | -60.17533 | 32009 ft | 459 kts | 80° |
| 2026-05-09 12:06 | -38.39534 | -60.13507 | 32365 ft | 458 kts | 79° |
| 2026-05-09 12:06 | -38.38871 | -60.09602 | 32712 ft | 456 kts | 79° |
| 2026-05-09 12:06 | -38.38200 | -60.05660 | 33029 ft | 455 kts | 79° |
| 2026-05-09 12:07 | -38.36849 | -59.97751 | 33019 ft | 456 kts | 79° |
| 2026-05-09 12:07 | -38.35499 | -59.89884 | 33014 ft | 453 kts | 79° |
| 2026-05-09 12:08 | -38.34151 | -59.82060 | 33010 ft | 451 kts | 79° |
| 2026-05-09 12:08 | -38.32804 | -59.74268 | 33008 ft | 450 kts | 79° |
| 2026-05-09 12:09 | -38.31464 | -59.66540 | 32999 ft | 449 kts | 79° |
| 2026-05-09 12:09 | -38.30108 | -59.58778 | 32992 ft | 448 kts | 79° |
| 2026-05-09 12:10 | -38.27378 | -59.43267 | 32981 ft | 449 kts | 79° |
| 2026-05-09 12:11 | -38.26010 | -59.35525 | 32975 ft | 449 kts | 79° |
| 2026-05-09 12:11 | -38.24639 | -59.27806 | 32967 ft | 450 kts | 79° |
| 2026-05-09 12:12 | -38.23253 | -59.20035 | 32960 ft | 450 kts | 78° |
| 2026-05-09 12:12 | -38.21862 | -59.12265 | 32955 ft | 451 kts | 78° |
| 2026-05-09 12:13 | -38.20463 | -59.04477 | 32945 ft | 451 kts | 78° |
| 2026-05-09 12:13 | -38.19055 | -58.96679 | 32940 ft | 452 kts | 78° |
| 2026-05-09 12:14 | -38.17653 | -58.88939 | 32930 ft | 452 kts | 78° |
| 2026-05-09 12:14 | -38.16229 | -58.81118 | 32923 ft | 452 kts | 78° |
| 2026-05-09 12:15 | -38.14808 | -58.73336 | 32915 ft | 452 kts | 78° |
| 2026-05-09 12:15 | -38.13382 | -58.65561 | 32908 ft | 452 kts | 78° |
| 2026-05-09 12:16 | -38.11958 | -58.57824 | 32898 ft | 451 kts | 78° |
| 2026-05-09 12:16 | -38.10521 | -58.50048 | 32895 ft | 451 kts | 78° |
| 2026-05-09 12:17 | -38.09090 | -58.42338 | 32883 ft | 451 kts | 78° |
| 2026-05-09 12:17 | -38.07647 | -58.34584 | 32876 ft | 450 kts | 78° |
| 2026-05-09 12:18 | -38.06199 | -58.26844 | 32871 ft | 450 kts | 78° |
| 2026-05-09 12:18 | -38.04749 | -58.19124 | 32866 ft | 450 kts | 78° |
| 2026-05-09 12:19 | -38.03298 | -58.11430 | 32857 ft | 449 kts | 78° |
| 2026-05-09 12:19 | -38.01839 | -58.03709 | 32851 ft | 449 kts | 78° |
| 2026-05-09 12:20 | -38.00377 | -57.96014 | 32838 ft | 449 kts | 78° |
| 2026-05-09 12:20 | -37.98907 | -57.88307 | 32835 ft | 449 kts | 78° |
| 2026-05-09 12:21 | -37.97438 | -57.80619 | 32833 ft | 449 kts | 78° |
| 2026-05-09 12:21 | -37.95970 | -57.72977 | 32828 ft | 449 kts | 78° |
| 2026-05-09 12:22 | -37.94486 | -57.65278 | 32831 ft | 448 kts | 78° |
| 2026-05-09 12:22 | -37.93534 | -57.61515 | 32801 ft | 451 kts | 65° |
| 2026-05-09 12:22 | -37.91752 | -57.58246 | 32845 ft | 454 kts | 48° |
| 2026-05-09 12:22 | -37.89331 | -57.55662 | 32819 ft | 459 kts | 32° |
| 2026-05-09 12:23 | -37.86484 | -57.53904 | 32847 ft | 460 kts | 25° |
| 2026-05-09 12:23 | -37.80554 | -57.50847 | 32824 ft | 461 kts | 24° |
| 2026-05-09 12:24 | -37.74599 | -57.47846 | 32817 ft | 461 kts | 24° |
| 2026-05-09 12:24 | -37.68656 | -57.44777 | 32824 ft | 461 kts | 25° |
| 2026-05-09 12:25 | -37.62723 | -57.41668 | 32833 ft | 461 kts | 25° |
| 2026-05-09 12:25 | -37.56815 | -57.38566 | 32832 ft | 462 kts | 24° |
| 2026-05-09 12:26 | -37.50872 | -57.35453 | 32830 ft | 462 kts | 25° |
| 2026-05-09 12:26 | -37.44923 | -57.32345 | 32834 ft | 463 kts | 24° |
| 2026-05-09 12:27 | -37.38960 | -57.29236 | 32844 ft | 463 kts | 25° |
| 2026-05-09 12:27 | -37.33038 | -57.26153 | 32852 ft | 464 kts | 24° |
| 2026-05-09 12:28 | -37.27067 | -57.23049 | 32842 ft | 464 kts | 24° |
| 2026-05-09 12:28 | -37.21083 | -57.19944 | 32847 ft | 465 kts | 25° |
| 2026-05-09 12:29 | -37.15090 | -57.16840 | 32854 ft | 465 kts | 25° |
| 2026-05-09 12:29 | -37.09143 | -57.13766 | 32867 ft | 465 kts | 25° |
| 2026-05-09 12:30 | -37.03157 | -57.10676 | 32866 ft | 465 kts | 25° |
| 2026-05-09 12:30 | -36.94158 | -57.06040 | 32889 ft | 467 kts | 25° |
| 2026-05-09 12:31 | -36.85109 | -57.01391 | 32870 ft | 467 kts | 25° |
| 2026-05-09 12:32 | -36.79125 | -56.98323 | 32879 ft | 465 kts | 25° |
| 2026-05-09 12:32 | -36.73152 | -56.95269 | 32886 ft | 463 kts | 25° |
| 2026-05-09 12:33 | -36.67166 | -56.92272 | 32884 ft | 462 kts | 24° |
| 2026-05-09 12:33 | -36.61175 | -56.89299 | 32884 ft | 463 kts | 24° |
| 2026-05-09 12:34 | -36.55223 | -56.86345 | 32881 ft | 463 kts | 24° |
| 2026-05-09 12:34 | -36.49241 | -56.83376 | 32884 ft | 462 kts | 25° |
| 2026-05-09 12:35 | -36.43261 | -56.80410 | 32884 ft | 462 kts | 25° |
| 2026-05-09 12:35 | -36.37285 | -56.77451 | 32883 ft | 462 kts | 25° |
| 2026-05-09 12:36 | -36.31304 | -56.74495 | 32885 ft | 463 kts | 25° |
| 2026-05-09 12:36 | -36.25306 | -56.71534 | 32889 ft | 464 kts | 25° |
| 2026-05-09 12:37 | -36.19323 | -56.68588 | 32888 ft | 467 kts | 25° |
| 2026-05-09 12:37 | -36.13264 | -56.65608 | 32884 ft | 469 kts | 25° |
| 2026-05-09 12:38 | -36.07178 | -56.62622 | 32887 ft | 471 kts | 25° |
| 2026-05-09 12:38 | -36.01117 | -56.59647 | 32892 ft | 472 kts | 24° |
| 2026-05-09 12:39 | -35.94992 | -56.56650 | 32893 ft | 473 kts | 25° |
| 2026-05-09 12:39 | -35.88849 | -56.53654 | 32884 ft | 474 kts | 25° |
| 2026-05-09 12:40 | -35.82708 | -56.50655 | 32878 ft | 474 kts | 24° |
| 2026-05-09 12:40 | -35.76545 | -56.47654 | 32891 ft | 476 kts | 24° |
| 2026-05-09 12:41 | -35.70415 | -56.44676 | 32877 ft | 471 kts | 24° |
| 2026-05-09 12:41 | -35.64396 | -56.41757 | 32881 ft | 464 kts | 24° |
| 2026-05-09 12:42 | -35.58400 | -56.38850 | 32887 ft | 462 kts | 24° |
| 2026-05-09 12:42 | -35.53421 | -56.36439 | 32888 ft | 463 kts | 24° |
| 2026-05-09 12:43 | -35.46409 | -56.33054 | 32900 ft | 468 kts | 23° |
| 2026-05-09 12:43 | -35.41316 | -56.30597 | 32893 ft | 470 kts | 23° |
| 2026-05-09 12:44 | -35.35226 | -56.27663 | 32877 ft | 468 kts | 23° |
| 2026-05-09 12:44 | -35.29254 | -56.24790 | 32891 ft | 462 kts | 23° |
| 2026-05-09 12:45 | -35.23287 | -56.21909 | 32898 ft | 459 kts | 23° |
| 2026-05-09 12:45 | -35.17353 | -56.19047 | 32897 ft | 458 kts | 23° |
| 2026-05-09 12:46 | -35.11413 | -56.16170 | 32899 ft | 459 kts | 22° |
| 2026-05-09 12:46 | -35.05470 | -56.13288 | 32902 ft | 460 kts | 23° |
| 2026-05-09 12:47 | -34.99542 | -56.10419 | 32899 ft | 463 kts | 23° |
| 2026-05-09 12:47 | -34.93511 | -56.07462 | 32892 ft | 469 kts | 22° |
| 2026-05-09 12:48 | -34.87437 | -56.04443 | 32847 ft | 472 kts | 23° |
| 2026-05-09 12:48 | -34.84434 | -56.02736 | 32131 ft | 476 kts | 34° |
| 2026-05-09 12:48 | -34.81918 | -56.00181 | 31570 ft | 468 kts | 51° |
| 2026-05-09 12:48 | -34.80137 | -55.96992 | 30979 ft | 458 kts | 66° |
| 2026-05-09 12:49 | -34.78804 | -55.93501 | 30181 ft | 454 kts | 68° |
| 2026-05-09 12:49 | -34.77412 | -55.90040 | 28982 ft | 455 kts | 64° |
| 2026-05-09 12:49 | -34.75749 | -55.86746 | 27825 ft | 459 kts | 58° |
| 2026-05-09 12:49 | -34.73774 | -55.83648 | 26717 ft | 468 kts | 51° |
| 2026-05-09 12:50 | -34.71508 | -55.80783 | 25655 ft | 475 kts | 45° |
| 2026-05-09 12:50 | -34.68963 | -55.78177 | 24615 ft | 476 kts | 39° |
| 2026-05-09 12:50 | -34.66231 | -55.75933 | 23624 ft | 471 kts | 32° |
| 2026-05-09 12:50 | -34.63351 | -55.74075 | 22483 ft | 467 kts | 26° |
| 2026-05-09 12:51 | -34.60278 | -55.72892 | 21292 ft | 462 kts | 7° |
| 2026-05-09 12:51 | -34.57101 | -55.73053 | 20232 ft | 456 kts | 346° |
| 2026-05-09 12:51 | -34.54216 | -55.74518 | 19177 ft | 446 kts | 325° |
| 2026-05-09 12:51 | -34.51862 | -55.76875 | 18177 ft | 434 kts | 311° |
| 2026-05-09 12:52 | -34.50015 | -55.79662 | 16992 ft | 425 kts | 300° |
| 2026-05-09 12:52 | -34.48694 | -55.82813 | 15803 ft | 416 kts | 287° |
| 2026-05-09 12:52 | -34.48044 | -55.86178 | 14677 ft | 405 kts | 272° |
| 2026-05-09 12:52 | -34.48115 | -55.89537 | 13598 ft | 394 kts | 258° |
| 2026-05-09 12:53 | -34.48806 | -55.92665 | 12826 ft | 376 kts | 248° |
| 2026-05-09 12:53 | -34.49894 | -55.95481 | 12012 ft | 361 kts | 237° |
| 2026-05-09 12:53 | -34.51426 | -55.97815 | 11225 ft | 349 kts | 220° |
| 2026-05-09 12:53 | -34.53514 | -55.99155 | 10502 ft | 342 kts | 200° |
| 2026-05-09 12:54 | -34.55798 | -55.99846 | 9771 ft | 335 kts | 194° |
| 2026-05-09 12:54 | -34.58074 | -56.00334 | 8963 ft | 329 kts | 192° |
| 2026-05-09 12:54 | -34.60316 | -56.00755 | 8179 ft | 323 kts | 192° |
| 2026-05-09 12:54 | -34.62528 | -56.01154 | 7410 ft | 319 kts | 192° |
| 2026-05-09 12:55 | -34.64715 | -56.01545 | 6661 ft | 314 kts | 192° |
| 2026-05-09 12:55 | -34.66873 | -56.01928 | 5896 ft | 310 kts | 191° |
| 2026-05-09 12:55 | -34.69049 | -56.01645 | 4430 ft | 332 kts | 165° |
| 2026-05-09 12:55 | -34.71104 | -56.00130 | 3132 ft | 351 kts | 140° |
| 2026-05-09 12:56 | -34.72498 | -55.97855 | 2991 ft | 331 kts | 121° |
| 2026-05-09 12:56 | -34.73277 | -55.95255 | 2278 ft | 330 kts | 103° |
| 2026-05-09 12:56 | -34.72923 | -55.92497 | 1434 ft | 332 kts | 59° |
| 2026-05-09 12:56 | -34.71643 | -55.90291 | 1194 ft | 310 kts | 49° |
| 2026-05-09 12:57 | -34.70267 | -55.88326 | 676 ft | 301 kts | 47° |
| 2026-05-09 12:57 | -34.68973 | -55.86494 | 881 ft | 268 kts | 47° |
| 2026-05-09 12:57 | -34.67824 | -55.84857 | 1196 ft | 240 kts | 46° |
| 2026-05-09 12:57 | -34.66833 | -55.83389 | 1473 ft | 214 kts | 51° |
| 2026-05-09 12:58 | -34.66137 | -55.81919 | 1689 ft | 190 kts | 67° |
| 2026-05-09 12:58 | -34.65828 | -55.80217 | 1986 ft | 210 kts | 99° |
| 2026-05-09 12:58 | -34.66396 | -55.78708 | 2353 ft | 188 kts | 150° |
| 2026-05-09 12:58 | -34.67529 | -55.78204 | 2444 ft | 167 kts | 197° |
| 2026-05-09 12:59 | -34.68441 | -55.78849 | 2520 ft | 149 kts | 228° |
| 2026-05-09 12:59 | -34.69164 | -55.79681 | 2519 ft | 141 kts | 228° |
| 2026-05-09 12:59 | -34.69812 | -55.80478 | 2492 ft | 125 kts | 227° |
| 2026-05-09 12:59 | -34.70392 | -55.81213 | 2524 ft | 122 kts | 230° |
| 2026-05-09 13:00 | -34.70933 | -55.81980 | 2501 ft | 116 kts | 233° |
| 2026-05-09 13:00 | -34.71431 | -55.82740 | 2499 ft | 114 kts | 234° |
| 2026-05-09 13:00 | -34.71919 | -55.83512 | 2505 ft | 115 kts | 234° |
| 2026-05-09 13:00 | -34.72402 | -55.84291 | 2501 ft | 115 kts | 234° |
| 2026-05-09 13:01 | -34.72879 | -55.85069 | 2501 ft | 115 kts | 235° |
| 2026-05-09 13:01 | -34.73349 | -55.85839 | 2504 ft | 114 kts | 235° |
| 2026-05-09 13:01 | -34.73829 | -55.86628 | 2503 ft | 116 kts | 235° |
| 2026-05-09 13:01 | -34.74311 | -55.87421 | 2515 ft | 117 kts | 235° |
| 2026-05-09 13:02 | -34.74794 | -55.88215 | 2507 ft | 116 kts | 235° |
| 2026-05-09 13:02 | -34.75276 | -55.89008 | 2481 ft | 116 kts | 235° |
| 2026-05-09 13:02 | -34.75739 | -55.89769 | 2739 ft | 113 kts | 234° |
| 2026-05-09 13:02 | -34.76232 | -55.90580 | 2333 ft | 124 kts | 234° |
| 2026-05-09 13:03 | -34.76893 | -55.91674 | 330 ft | 196 kts | 235° |
| 2026-05-09 13:03 | -34.77587 | -55.92803 | 639 ft | 134 kts | 237° |
| 2026-05-09 13:03 | -34.78009 | -55.93493 | 983 ft | 79 kts | 238° |
| 2026-05-09 13:03 | -34.78396 | -55.94138 | 1024 ft | 116 kts | 237° |
| 2026-05-09 13:04 | -34.78871 | -55.94921 | 1593 ft | 117 kts | 236° |
| 2026-05-09 13:04 | -34.79359 | -55.95723 | 1748 ft | 121 kts | 236° |
| 2026-05-09 13:04 | -34.79902 | -55.96629 | 522 ft | 158 kts | 237° |
| 2026-05-09 13:04 | -34.80605 | -55.97696 | 223 ft | 157 kts | 234° |
| 2026-05-09 13:05 | -34.81222 | -55.98691 | 250 ft | 142 kts | 236° |
| 2026-05-09 13:05 | -34.81759 | -55.99602 | 319 ft | 131 kts | 242° |
| 2026-05-09 13:05 | -34.82303 | -56.00544 | 226 ft | 129 kts | 236° |
| 2026-05-09 13:05 | -34.82808 | -56.01359 | 115 ft | 119 kts | 239° |
| 2026-05-09 13:06 | -34.83223 | -56.02072 | 89 ft | 77 kts | 233° |
| 2026-05-09 13:06 | -34.83428 | -56.02414 | 86 ft | 35 kts | 233° |
| 2026-05-09 13:06 | -34.83539 | -56.02599 | 83 ft | 0 kts | 234° |